Hamilton Mun Airport, Hamilton (KVGC)

Airport Weather & NOTAMs

METAR for:KVGC (Hamilton Muni, NY, US)
Text:KVGC 250255Z AUTO 00000KT 10SM CLR 11/08 A2990 RMK AO2
Conditions at:0255 UTC 25 May 2024
Temperature: 11.0°C ( 52°F)
Dewpoint: 8.0°C ( 46°F) [RH = 82%]
Pressure (altimeter):29.90 inches Hg (1012.6 mb)
Winds:calm
Visibility:10 or more sm (16+ km)
Ceiling:at least 12,000 feet AGL
Clouds:sky clear below 12,000 feet AGL
QC Flag:automated observation with no human augmentation

Live Departures & Arrivals

There are currently no arrivals or departures for this airport.

Departures History (last 12 months)

Flight No. Dest. Aircraft Date

Arrivals History (last 12 months)

Flight No. Origin Aircraft Date
Runway Information (Airport elevation: 1,137ft)
Runway 17 Length 5,312ft Width 73ft Elevation 1,174ft Surface Asphalt Heading 159
Runway 35 Length 5,312ft Width 73ft Elevation 1,174ft Surface Asphalt Heading 339
Airport Frequencies
Type APP/DEP Frequency 126.125 Mhz
Type AWOS Frequency 119.425 Mhz
Type D Frequency 126.125 Mhz
Type UC Frequency 123.000 Mhz
Type AWOS Frequency 119.425 Mhz
Type MC Frequency 122.700 Mhz
Type UC Frequency 123.000 Mhz
Airport Navaids
No navaids to display.